createdAt,value
2022-11-23T00:02:14.256Z,81.29
2022-11-23T00:04:43.604Z,81.51
2022-11-23T00:07:13.630Z,81.21
2022-11-23T00:09:46.333Z,81.24
2022-11-23T00:12:16.233Z,81.16
2022-11-23T00:14:44.815Z,81.65
2022-11-23T00:17:13.693Z,81.64
2022-11-23T00:19:43.654Z,81.40
2022-11-23T00:22:13.400Z,81.21
2022-11-23T00:24:45.135Z,81.37
2022-11-23T00:27:14.488Z,81.57
2022-11-23T00:29:47.364Z,81.90
2022-11-23T00:32:18.376Z,81.71
2022-11-23T00:34:47.983Z,81.49
2022-11-23T00:37:17.741Z,81.47
2022-11-23T00:39:48.215Z,81.54
2022-11-23T00:42:21.911Z,81.31
2022-11-23T00:44:51.015Z,80.77
2022-11-23T00:47:21.969Z,80.82
2022-11-23T00:49:52.917Z,80.59
2022-11-23T00:52:23.142Z,80.80
2022-11-23T00:54:52.071Z,81.04
2022-11-23T00:57:21.403Z,80.72
2022-11-23T00:59:50.094Z,80.85
2022-11-23T01:02:19.215Z,80.94
2022-11-23T01:04:48.884Z,81.32
2022-11-23T01:07:17.908Z,81.52
2022-11-23T01:09:46.758Z,81.79
2022-11-23T01:12:17.016Z,81.95
2022-11-23T01:14:54.575Z,82.34
2022-11-23T01:17:24.681Z,83.19
2022-11-23T01:19:55.457Z,83.50
2022-11-23T01:22:26.443Z,83.36
2022-11-23T01:24:55.416Z,82.97
2022-11-23T01:27:24.610Z,83.06
2022-11-23T01:29:54.461Z,82.67
2022-11-23T01:32:23.562Z,82.42
2022-11-23T01:34:56.275Z,82.34
2022-11-23T01:37:25.615Z,82.13
2022-11-23T01:39:55.077Z,81.98
2022-11-23T01:42:40.371Z,81.78
2022-11-23T01:46:04.710Z,81.87
2022-11-23T01:48:55.724Z,82.43
2022-11-23T01:51:31.166Z,82.80
2022-11-23T01:54:05.329Z,83.14
2022-11-23T01:56:43.604Z,83.25
2022-11-23T01:59:19.613Z,83.24
2022-11-23T02:01:50.342Z,83.27
2022-11-23T02:04:27.812Z,83.14
2022-11-23T02:07:02.829Z,83.20
2022-11-23T02:09:37.805Z,82.83
2022-11-23T02:12:17.702Z,82.97
2022-11-23T02:14:50.486Z,83.34
2022-11-23T02:17:23.576Z,83.56
2022-11-23T02:20:15.322Z,83.81
2022-11-23T02:22:50.054Z,83.88
2022-11-23T02:25:44.532Z,83.91
2022-11-23T02:28:18.043Z,83.85
2022-11-23T02:30:50.517Z,83.78
2022-11-23T02:33:19.631Z,83.54
2022-11-23T02:35:55.573Z,83.42
2022-11-23T02:38:32.909Z,82.59
2022-11-23T02:41:03.280Z,82.38
2022-11-23T02:43:34.237Z,82.29
2022-11-23T02:46:05.136Z,82.76
2022-11-23T02:48:40.290Z,83.26
2022-11-23T02:51:10.700Z,83.48
2022-11-23T02:53:39.834Z,83.46
2022-11-23T02:56:12.529Z,83.86
2022-11-23T02:58:43.029Z,84.26
2022-11-23T03:01:11.621Z,83.92
2022-11-23T03:03:41.719Z,83.74
2022-11-23T03:06:11.252Z,83.94
2022-11-23T03:08:40.053Z,84.36
2022-11-23T03:11:09.364Z,84.22
2022-11-23T03:13:38.713Z,84.28
2022-11-23T03:16:09.516Z,84.11
2022-11-23T03:18:43.606Z,84.28
2022-11-23T03:21:13.142Z,83.86
2022-11-23T03:23:41.769Z,84.10
2022-11-23T03:26:13.979Z,84.29
2022-11-23T03:28:52.736Z,83.87
2022-11-23T03:31:23.120Z,83.89
2022-11-23T03:33:53.077Z,84.07
2022-11-23T03:36:22.491Z,84.10
2022-11-23T03:38:51.613Z,84.09
2022-11-23T03:41:47.374Z,83.94
2022-11-23T03:44:16.559Z,84.04
2022-11-23T03:46:46.789Z,83.98
2022-11-23T03:49:15.595Z,83.91
2022-11-23T03:51:45.911Z,84.00
2022-11-23T03:54:19.113Z,83.83
2022-11-23T03:56:51.238Z,83.80
2022-11-23T03:59:23.395Z,84.20
2022-11-23T04:01:56.961Z,84.03
2022-11-23T04:04:28.892Z,83.98
2022-11-23T04:07:21.723Z,83.81
2022-11-23T04:09:53.271Z,83.87
2022-11-23T04:12:27.292Z,84.28
2022-11-23T04:14:57.172Z,84.45
2022-11-23T04:17:26.271Z,84.59
2022-11-23T04:19:55.321Z,84.41
2022-11-23T04:22:24.382Z,84.87
2022-11-23T04:24:54.529Z,84.93
2022-11-23T04:27:23.718Z,84.81
2022-11-23T04:29:52.345Z,84.60
2022-11-23T04:32:23.941Z,84.52
2022-11-23T04:34:54.478Z,84.55
2022-11-23T04:37:26.346Z,84.28
2022-11-23T04:39:55.155Z,84.19
2022-11-23T04:42:47.205Z,83.98
2022-11-23T04:45:16.288Z,83.72
2022-11-23T04:47:46.461Z,83.85
2022-11-23T04:50:16.960Z,84.16
2022-11-23T04:52:48.287Z,84.13
2022-11-23T04:55:20.167Z,84.46
2022-11-23T04:57:57.249Z,84.62
2022-11-23T05:00:31.223Z,84.10
2022-11-23T05:03:02.585Z,84.17
2022-11-23T05:05:34.316Z,84.41
2022-11-23T05:08:06.147Z,84.51
2022-11-23T05:10:53.939Z,84.62
2022-11-23T05:13:24.054Z,84.66
2022-11-23T05:15:55.958Z,84.67
2022-11-23T05:18:31.965Z,84.82
